createdAt,value
2023-03-29T00:04:53.864Z,5.10
2023-03-29T00:09:57.017Z,4.18
2023-03-29T00:15:00.109Z,4.78
2023-03-29T00:20:06.580Z,4.15
2023-03-29T00:25:13.252Z,4.40
2023-03-29T00:30:16.892Z,4.45
2023-03-29T00:35:20.214Z,4.32
2023-03-29T00:40:23.801Z,5.13
2023-03-29T00:45:30.813Z,4.00
2023-03-29T00:50:39.860Z,4.72
2023-03-29T00:56:12.191Z,4.03
2023-03-29T01:01:19.844Z,3.90
2023-03-29T01:06:29.600Z,4.90
2023-03-29T01:11:40.330Z,4.90
2023-03-29T01:16:43.538Z,4.40
2023-03-29T01:21:53.250Z,5.18
2023-03-29T01:27:02.373Z,4.75
2023-03-29T01:32:23.680Z,4.40
2023-03-29T01:37:42.824Z,4.78
2023-03-29T01:42:50.040Z,6.07
2023-03-29T01:48:09.136Z,4.10
2023-03-29T01:53:24.605Z,3.60
2023-03-29T01:58:34.159Z,5.18
2023-03-29T02:03:42.671Z,4.93
2023-03-29T02:08:46.985Z,4.93
2023-03-29T02:13:50.036Z,5.15
2023-03-29T02:18:56.644Z,5.38
2023-03-29T02:24:03.681Z,4.30
2023-03-29T02:29:06.798Z,4.50
2023-03-29T02:34:27.116Z,4.97
2023-03-29T02:39:34.020Z,5.70
2023-03-29T02:44:41.790Z,5.28
2023-03-29T02:49:45.974Z,4.90
2023-03-29T02:54:51.624Z,5.03
2023-03-29T02:59:57.298Z,4.03
2023-03-29T03:05:00.356Z,3.30
2023-03-29T03:10:04.303Z,3.90
2023-03-29T03:15:08.171Z,3.63
2023-03-29T03:20:15.392Z,3.50
2023-03-29T03:25:49.683Z,3.50
2023-03-29T03:36:31.904Z,3.22
2023-03-29T03:41:42.098Z,2.88
2023-03-29T03:46:45.201Z,3.40
2023-03-29T03:51:49.379Z,3.13
2023-03-29T03:56:54.559Z,2.55
2023-03-29T04:02:12.657Z,3.03
2023-03-29T04:07:18.156Z,2.05
2023-03-29T04:12:33.274Z,2.17
2023-03-29T04:17:37.232Z,2.22
2023-03-29T04:23:03.579Z,3.13
2023-03-29T04:28:07.290Z,2.58
2023-03-29T04:33:29.616Z,3.40
2023-03-29T04:38:36.432Z,2.30
2023-03-29T04:43:41.649Z,2.55
2023-03-29T04:48:53.132Z,2.45
2023-03-29T04:59:33.037Z,2.22
2023-03-29T05:04:38.614Z,2.80
2023-03-29T05:09:48.909Z,2.55
2023-03-29T05:14:52.004Z,2.67
2023-03-29T05:19:56.756Z,2.80
2023-03-29T05:25:01.937Z,2.60
2023-03-29T05:30:06.817Z,2.72
2023-03-29T05:35:19.315Z,2.30
2023-03-29T05:40:22.685Z,2.28
2023-03-29T05:45:49.003Z,1.98
2023-03-29T05:50:54.092Z,1.92
2023-03-29T05:55:57.538Z,2.50
2023-03-29T06:01:04.975Z,2.60
2023-03-29T06:06:25.946Z,2.38
2023-03-29T06:11:29.150Z,2.08
2023-03-29T06:16:50.578Z,2.00
2023-03-29T06:21:54.709Z,2.25
2023-03-29T06:27:01.757Z,2.22
2023-03-29T06:32:07.405Z,3.10
2023-03-29T06:37:32.297Z,2.70
2023-03-29T06:42:46.825Z,2.55
2023-03-29T06:48:25.175Z,2.50
2023-03-29T06:53:28.592Z,2.75
2023-03-29T06:58:38.096Z,2.90
2023-03-29T07:04:05.135Z,2.47
2023-03-29T07:09:19.442Z,2.40
2023-03-29T07:14:54.768Z,2.90
2023-03-29T07:20:01.450Z,2.85
2023-03-29T07:25:24.157Z,3.08
2023-03-29T07:30:32.416Z,2.95
2023-03-29T07:35:49.726Z,2.90
2023-03-29T07:40:54.697Z,3.05
2023-03-29T07:46:22.350Z,2.63
2023-03-29T07:51:28.127Z,3.38
2023-03-29T07:56:43.111Z,3.05
2023-03-29T08:02:01.607Z,3.70
2023-03-29T08:07:12.895Z,3.47
2023-03-29T08:12:47.513Z,3.05
2023-03-29T08:17:52.760Z,3.38
2023-03-29T08:22:57.944Z,3.92
2023-03-29T08:28:12.782Z,3.63
2023-03-29T08:33:24.477Z,3.97
2023-03-29T08:38:37.992Z,3.58
2023-03-29T08:44:03.445Z,3.80
2023-03-29T08:49:44.333Z,4.18
2023-03-29T08:54:53.461Z,3.42
2023-03-29T09:00:10.906Z,4.10
2023-03-29T09:05:31.561Z,4.00
2023-03-29T09:11:17.779Z,3.95
2023-03-29T09:16:39.484Z,2.85
2023-03-29T09:21:56.892Z,3.55
2023-03-29T09:27:28.386Z,3.50
2023-03-29T09:32:57.821Z,3.38
2023-03-29T09:38:15.360Z,3.10
2023-03-29T09:43:31.135Z,3.00
2023-03-29T09:48:41.789Z,3.40
2023-03-29T09:53:45.225Z,3.20
2023-03-29T09:59:12.661Z,3.50
2023-03-29T10:04:17.209Z,3.22
2023-03-29T10:09:29.804Z,3.42
2023-03-29T10:14:53.983Z,3.55
2023-03-29T10:20:09.666Z,3.25
2023-03-29T10:25:15.193Z,3.05
2023-03-29T10:30:23.476Z,3.17
2023-03-29T10:35:42.035Z,5.13
2023-03-29T10:40:47.618Z,5.00
2023-03-29T10:45:54.178Z,4.13
2023-03-29T10:51:06.286Z,4.40
2023-03-29T10:56:24.755Z,3.67
2023-03-29T11:01:34.912Z,3.38
2023-03-29T11:06:53.137Z,4.75
2023-03-29T11:17:46.281Z,5.18
2023-03-29T11:23:21.175Z,5.13
2023-03-29T11:28:40.364Z,3.65
2023-03-29T11:34:19.990Z,3.08
2023-03-29T11:39:23.963Z,3.17
2023-03-29T11:44:36.347Z,3.72
2023-03-29T11:50:06.939Z,3.55
2023-03-29T11:55:18.775Z,2.92
2023-03-29T12:00:33.674Z,4.18
2023-03-29T12:05:57.564Z,3.65
2023-03-29T12:11:21.177Z,3.45
2023-03-29T12:16:48.490Z,4.07
2023-03-29T12:21:54.531Z,3.33
2023-03-29T12:27:20.989Z,3.30
2023-03-29T12:32:32.778Z,3.22
2023-03-29T12:43:43.766Z,3.03
2023-03-29T12:49:28.579Z,3.15
2023-03-29T12:54:33.350Z,3.40
2023-03-29T12:59:50.008Z,3.45
2023-03-29T13:04:55.933Z,3.33
2023-03-29T13:10:08.516Z,3.75
2023-03-29T13:15:17.922Z,3.72
2023-03-29T13:20:37.747Z,3.80
2023-03-29T13:26:04.242Z,4.03
2023-03-29T13:31:25.985Z,3.15
2023-03-29T13:36:46.555Z,3.75
2023-03-29T13:41:53.506Z,3.47
2023-03-29T13:47:16.796Z,2.85
2023-03-29T13:52:39.922Z,3.20
2023-03-29T13:57:52.935Z,2.67
2023-03-29T14:03:01.811Z,4.05
2023-03-29T14:08:13.919Z,3.85
2023-03-29T14:13:22.867Z,3.42
2023-03-29T14:18:29.128Z,3.33
2023-03-29T14:23:34.300Z,3.10
2023-03-29T14:28:43.863Z,3.08
2023-03-29T14:33:52.856Z,3.22
2023-03-29T14:39:06.203Z,2.67
2023-03-29T14:44:09.613Z,3.10
2023-03-29T14:49:17.491Z,3.33
2023-03-29T14:54:29.053Z,2.70
2023-03-29T14:59:35.039Z,1.52
2023-03-29T15:09:45.696Z,1.80
2023-03-29T15:14:52.046Z,1.52
2023-03-29T15:20:00.333Z,1.85
2023-03-29T15:25:04.055Z,1.75
2023-03-29T15:30:17.066Z,1.70
2023-03-29T15:35:25.179Z,1.30
2023-03-29T15:40:28.473Z,1.60
2023-03-29T15:45:31.480Z,1.85
2023-03-29T15:50:34.530Z,2.40
2023-03-29T15:55:42.040Z,2.90
2023-03-29T16:00:51.728Z,1.90
2023-03-29T16:05:57.108Z,1.52
2023-03-29T16:11:00.215Z,1.95
2023-03-29T16:16:03.709Z,1.70
2023-03-29T16:21:08.023Z,1.80
2023-03-29T16:26:16.897Z,2.22
2023-03-29T16:31:20.763Z,1.85
2023-03-29T16:36:23.930Z,3.67
2023-03-29T16:41:27.436Z,2.65
2023-03-29T16:46:31.146Z,3.15
2023-03-29T16:51:34.242Z,1.80
2023-03-29T16:56:37.366Z,1.00
2023-03-29T17:01:40.973Z,1.30
2023-03-29T17:06:44.185Z,1.50
2023-03-29T17:11:47.136Z,1.10
2023-03-29T17:16:50.237Z,1.40
2023-03-29T17:21:53.285Z,1.33
2023-03-29T17:26:57.570Z,1.88
2023-03-29T17:32:00.722Z,0.93
2023-03-29T17:37:04.045Z,1.25
2023-03-29T17:42:10.130Z,1.20
2023-03-29T17:47:13.212Z,1.80
2023-03-29T17:52:16.258Z,1.70
2023-03-29T17:57:19.287Z,0.82
2023-03-29T18:02:24.315Z,1.08
2023-03-29T18:07:28.349Z,0.80
2023-03-29T18:12:31.397Z,1.40
2023-03-29T18:17:36.135Z,1.20
2023-03-29T18:22:41.607Z,1.40
2023-03-29T18:27:44.647Z,1.85
2023-03-29T18:32:47.690Z,2.72
2023-03-29T18:37:51.844Z,1.98
2023-03-29T18:42:54.853Z,1.70
2023-03-29T18:47:58.033Z,1.73
2023-03-29T18:53:01.829Z,1.55
2023-03-29T18:58:04.927Z,2.60
2023-03-29T19:03:08.871Z,2.42
2023-03-29T19:08:12.123Z,1.70
2023-03-29T19:13:15.294Z,1.50
2023-03-29T19:18:18.407Z,1.30
2023-03-29T19:23:23.094Z,1.52
2023-03-29T19:28:27.643Z,2.03
2023-03-29T19:33:30.906Z,2.10
2023-03-29T19:38:33.919Z,3.00
2023-03-29T19:43:36.954Z,4.15
2023-03-29T19:48:40.466Z,3.42
2023-03-29T19:53:43.735Z,2.40
2023-03-29T19:58:48.513Z,2.40
2023-03-29T20:03:51.688Z,3.60
2023-03-29T20:08:55.173Z,2.85
2023-03-29T20:13:58.200Z,2.70
2023-03-29T20:19:02.343Z,5.53
2023-03-29T20:24:06.412Z,6.13
2023-03-29T20:29:09.456Z,3.85
2023-03-29T20:34:12.756Z,2.90
2023-03-29T20:39:19.092Z,1.60
2023-03-29T20:49:39.029Z,1.70
2023-03-29T20:54:43.458Z,1.40
2023-03-29T20:59:48.429Z,1.25
2023-03-29T21:04:52.805Z,1.70
2023-03-29T21:09:55.878Z,1.75
2023-03-29T21:14:58.842Z,1.73
2023-03-29T21:20:02.882Z,2.00
2023-03-29T21:25:08.482Z,1.83
2023-03-29T21:30:11.973Z,2.60
2023-03-29T21:35:15.142Z,2.60
2023-03-29T21:40:18.170Z,1.73
2023-03-29T21:45:21.378Z,2.17
2023-03-29T21:50:24.533Z,2.13
2023-03-29T21:55:27.811Z,1.80
2023-03-29T22:00:31.592Z,2.15
2023-03-29T22:05:35.241Z,2.00
2023-03-29T22:10:41.662Z,2.17
2023-03-29T22:15:45.353Z,2.17
2023-03-29T22:20:48.763Z,2.28
2023-03-29T22:25:51.760Z,1.90
2023-03-29T22:30:54.730Z,2.08
2023-03-29T22:35:57.782Z,2.17
2023-03-29T22:41:01.810Z,2.00
2023-03-29T22:46:07.266Z,1.77
2023-03-29T22:51:10.352Z,2.40
2023-03-29T22:56:14.635Z,2.72
2023-03-29T23:01:17.764Z,2.92
2023-03-29T23:06:20.840Z,1.95
2023-03-29T23:11:23.904Z,2.67
2023-03-29T23:16:26.964Z,2.78
2023-03-29T23:21:30.071Z,3.00
2023-03-29T23:26:33.823Z,3.25
2023-03-29T23:31:38.007Z,3.55
2023-03-29T23:36:41.280Z,3.42
2023-03-29T23:41:44.439Z,4.25
2023-03-29T23:46:47.558Z,3.85
2023-03-29T23:51:50.853Z,4.63
2023-03-29T23:56:53.923Z,4.60
